D/T METAR WX W/DIR W/SPE G/SPE TEMP DEWP
7/12/19 23:50 EGNS 072350Z 22025KT 9999 -RA FEW010 BKN020 12/11 Q0989 -RA SW (220°) 28.8mph 12°C 11°C
7/12/19 22:50 EGNS 072250Z 21034G45KT 9999 BKN008 BKN015 12/10 Q0990 SSW (210°) 39.1mph 51.8mph 12°C 10°C
7/12/19 21:50 EGNS 072150Z 20031G43KT 4000 +RA BKN006 OVC015 11/10 Q0992 +RA SSW (200°) 35.7mph 49.5mph 11°C 10°C
7/12/19 20:50 EGNS 072050Z 20032G45KT 5000 RA BKN006 OVC010 11/10 Q0994 NOSIG RA SSW (200°) 36.8mph 51.8mph 11°C 10°C
7/12/19 20:20 EGNS 072020Z 21029G39KT 6000 -RA BKN006 OVC010 11/09 Q0995 NOSIG -RA SSW (210°) 33.4mph 44.9mph 11°C 9°C
7/12/19 19:50 EGNS 071950Z 21029G41KT 8000 -RA OVC006 10/09 Q0997 TEMPO 5000 BKN005 -RA SSW (210°) 33.4mph 47.2mph 10°C 9°C
7/12/19 19:20 EGNS 071920Z 21029G39KT 9999 FEW006 OVC007 11/09 Q0998 NOSIG SSW (210°) 33.4mph 44.9mph 11°C 9°C
7/12/19 18:50 EGNS 071850Z 21030G41KT 9999 BKN006 11/09 Q0999 NOSIG SSW (210°) 34.5mph 47.2mph 11°C 9°C
7/12/19 18:20 EGNS 071820Z 21031G42KT 9999 BKN006 10/09 Q0999 NOSIG SSW (210°) 35.7mph 48.3mph 10°C 9°C
7/12/19 17:50 EGNS 071750Z 21026KT 9999 FEW005 BKN007 10/09 Q1000 NOSIG SSW (210°) 29.9mph 10°C 9°C
7/12/19 17:20 EGNS 071720Z 21026KT 9999 FEW004 OVC006 10/09 Q1001 NOSIG SSW (210°) 29.9mph 10°C 9°C
7/12/19 16:50 EGNS 071650Z 21025KT 9999 FEW004 OVC006 10/09 Q1002 TEMPO 8000 -RADZ SSW (210°) 28.8mph 10°C 9°C
7/12/19 16:20 EGNS 071620Z 21026KT 9999 FEW004 OVC005 10/10 Q1002 TEMPO 8000 -RADZ SSW (210°) 29.9mph 10°C 10°C
7/12/19 15:50 EGNS 071550Z 21025KT 9999 SCT005 OVC006 11/10 Q1003 TEMPO 8000 -RADZ BKN005 SSW (210°) 28.8mph 11°C 10°C
7/12/19 15:20 EGNS 071520Z 21024KT 9999 FEW005 BKN006 11/10 Q1003 TEMPO 8000 -RADZ SSW (210°) 27.6mph 11°C 10°C
7/12/19 14:50 EGNS 071450Z 21024G34KT 9999 BKN007 BKN025 11/09 Q1004 TEMPO 8000 -RADZ SSW (210°) 27.6mph 39.1mph 11°C 9°C
7/12/19 14:20 EGNS 071420Z 21019KT 9999 SCT008 BKN025 11/09 Q1004 TEMPO 8000 -RADZ BKN008 SSW (210°) 21.9mph 11°C 9°C
7/12/19 13:50 EGNS 071350Z 21023KT 9999 SCT009 BKN023 OVC030 10/09 Q1005 TEMPO 8000 -RADZ BKN008 SSW (210°) 26.5mph 10°C 9°C
7/12/19 13:20 EGNS 071320Z 21022KT 9999 FEW006 BKN009 OVC020 10/09 Q1006 NOSIG SSW (210°) 25.3mph 10°C 9°C
7/12/19 12:50 EGNS 071250Z 20023KT 9999 SCT006 BKN008 OVC014 10/09 Q1006 NOSIG SSW (200°) 26.5mph 10°C 9°C
7/12/19 12:20 EGNS 071220Z 21021KT 5000 -RADZ SCT005 OVC007 10/09 Q1007 NOSIG -RA -DZ SSW (210°) 24.2mph 10°C 9°C
7/12/19 11:50 EGNS 071150Z 21019KT 9000 -RA SCT008 OVC011 10/09 Q1007 NOSIG -RA SSW (210°) 21.9mph 10°C 9°C
7/12/19 11:20 EGNS 071120Z 21018KT 9999 FEW010 OVC012 10/08 Q1008 NOSIG SSW (210°) 20.7mph 10°C 8°C
7/12/19 10:50 EGNS 071050Z 21017KT 9999 9000NW -RA FEW009 OVC012 10/08 Q1008 NOSIG -RA SSW (210°) 19.6mph 10°C 8°C
7/12/19 10:20 EGNS 071020Z 22016KT 9999 -RADZ FEW009 OVC012 10/08 Q1008 NOSIG -RA -DZ SW (220°) 18.4mph 10°C 8°C
7/12/19 09:50 EGNS 070950Z 23017KT 9999 FEW009 OVC012 09/08 Q1008 NOSIG SW (230°) 19.6mph 9°C 8°C
7/12/19 09:20 EGNS 070920Z 24017KT 9999 FEW009 BKN012 09/07 Q1009 NOSIG WSW (240°) 19.6mph 9°C 7°C
7/12/19 08:50 EGNS 070850Z 24016KT 9999 SCT012 BKN015 09/07 Q1009 TEMPO BKN012 WSW (240°) 18.4mph 9°C 7°C
7/12/19 08:20 EGNS 070820Z 24014KT 9999 SCT012 BKN017 09/07 Q1009 NOSIG WSW (240°) 16.1mph 9°C 7°C
7/12/19 07:50 EGNS 070750Z 25016KT 9999 SCT012 BKN015 BKN030 09/07 Q1009 TEMPO BKN012 WSW (250°) 18.4mph 9°C 7°C
7/12/19 07:20 EGNS 070720Z 25014KT 9999 FEW012 SCT016 09/07 Q1009 TEMPO BKN012 WSW (250°) 16.1mph 9°C 7°C
7/12/19 06:50 EGNS 070650Z 25012KT 9999 SCT012 09/07 Q1009 TEMPO BKN012 WSW (250°) 13.8mph 9°C 7°C
7/12/19 06:20 EGNS 070620Z 25012KT 9999 FEW013 SCT035 09/07 Q1009 NOSIG WSW (250°) 13.8mph 9°C 7°C
7/12/19 05:50 EGNS 070550Z 26010KT 9999 FEW012 SCT035 09/07 Q1009 NOSIG W (260°) 11.5mph 9°C 7°C
7/12/19 05:20 EGNS 070520Z 27013KT 9999 FEW012 SCT018 BKN035 09/06 Q1009 TEMPO BKN012 W (270°) 15.0mph 9°C 6°C
7/12/19 04:50 EGNS 070450Z 26014KT 9999 SCT011 BKN036 09/07 Q1009 W (260°) 16.1mph 9°C 7°C
7/12/19 03:50 EGNS 070350Z 26012KT 9999 FEW012 SCT025 09/07 Q1008 W (260°) 13.8mph 9°C 7°C
7/12/19 02:50 EGNS 070250Z 26013KT 9999 FEW011 BKN018 09/07 Q1007 W (260°) 15.0mph 9°C 7°C
7/12/19 01:50 EGNS 070150Z 26016KT 9999 FEW013 SCT016 BKN027 09/07 Q1007 W (260°) 18.4mph 9°C 7°C
7/12/19 00:50 EGNS 070050Z 26015KT 9999 FEW013 SCT035 10/07 Q1007 W (260°) 17.3mph 10°C 7°C
6/12/19 23:50 EGNS 062350Z 25013KT 9999 SCT017 BKN028 10/07 Q1006 WSW (250°) 15.0mph 10°C 7°C
6/12/19 22:50 EGNS 062250Z 27011KT 9999 FEW020 BKN030 10/06 Q1006 W (270°) 12.7mph 10°C 6°C
6/12/19 22:20 EGNS 062220Z 27011KT 240V300 9999 FEW018 BKN028 10/06 Q1005 NOSIG W (270°) 12.7mph 10°C 6°C
6/12/19 21:50 EGNS 062150Z 28015KT 9999 FEW018 SCT024 10/06 Q1005 NOSIG W (280°) 17.3mph 10°C 6°C
6/12/19 21:20 EGNS 062120Z 27013KT 9999 FEW018 BKN022 09/06 Q1005 NOSIG W (270°) 15.0mph 9°C 6°C
6/12/19 20:50 EGNS 062050Z 27012KT 9999 SCT018 09/06 Q1004 NOSIG W (270°) 13.8mph 9°C 6°C
6/12/19 20:20 EGNS 062020Z 27013KT 240V300 9999 SCT018 09/06 Q1004 NOSIG W (270°) 15.0mph 9°C 6°C
6/12/19 19:50 EGNS 061950Z 27016KT 9999 FEW018 SCT025 10/06 Q1004 NOSIG W (270°) 18.4mph 10°C 6°C